sensor_id;sensor_type;location;lat;lon;timestamp;P1;durP1;ratioP1;P2;durP2;ratioP2
36291;SDS011;22327;51.208;6.418;2023-04-24T00:00:35;1.98;;;0.90;;
36291;SDS011;22327;51.208;6.418;2023-04-24T00:03:01;1.20;;;0.90;;
36291;SDS011;22327;51.208;6.418;2023-04-24T00:05:28;1.83;;;1.00;;
36291;SDS011;22327;51.208;6.418;2023-04-24T00:07:53;1.80;;;1.00;;
36291;SDS011;22327;51.208;6.418;2023-04-24T00:10:20;1.65;;;1.30;;
36291;SDS011;22327;51.208;6.418;2023-04-24T00:12:46;2.22;;;1.38;;
36291;SDS011;22327;51.208;6.418;2023-04-24T00:15:11;1.73;;;1.60;;
36291;SDS011;22327;51.208;6.418;2023-04-24T00:17:37;2.58;;;1.95;;
36291;SDS011;22327;51.208;6.418;2023-04-24T00:20:03;3.15;;;2.00;;
36291;SDS011;22327;51.208;6.418;2023-04-24T00:22:29;4.22;;;3.05;;
36291;SDS011;22327;51.208;6.418;2023-04-24T00:24:56;3.95;;;2.67;;
36291;SDS011;22327;51.208;6.418;2023-04-24T00:27:21;4.90;;;2.67;;
36291;SDS011;22327;51.208;6.418;2023-04-24T00:29:47;6.53;;;3.00;;
36291;SDS011;22327;51.208;6.418;2023-04-24T00:32:13;3.97;;;3.03;;
36291;SDS011;22327;51.208;6.418;2023-04-24T00:34:39;4.53;;;3.40;;
36291;SDS011;22327;51.208;6.418;2023-04-24T00:37:05;5.50;;;3.50;;
36291;SDS011;22327;51.208;6.418;2023-04-24T00:39:31;5.13;;;3.72;;
36291;SDS011;22327;51.208;6.418;2023-04-24T00:41:56;5.43;;;3.40;;
36291;SDS011;22327;51.208;6.418;2023-04-24T00:44:22;5.93;;;3.88;;
36291;SDS011;22327;51.208;6.418;2023-04-24T00:46:48;4.18;;;3.65;;
36291;SDS011;22327;51.208;6.418;2023-04-24T00:49:19;4.57;;;3.28;;
36291;SDS011;22327;51.208;6.418;2023-04-24T00:51:48;6.20;;;3.45;;
36291;SDS011;22327;51.208;6.418;2023-04-24T00:54:16;5.38;;;3.15;;
36291;SDS011;22327;51.208;6.418;2023-04-24T00:56:42;3.67;;;2.72;;
36291;SDS011;22327;51.208;6.418;2023-04-24T00:59:08;5.68;;;3.25;;
36291;SDS011;22327;51.208;6.418;2023-04-24T01:01:34;3.83;;;3.10;;
36291;SDS011;22327;51.208;6.418;2023-04-24T01:04:00;5.30;;;3.20;;
36291;SDS011;22327;51.208;6.418;2023-04-24T01:06:27;5.85;;;3.00;;
36291;SDS011;22327;51.208;6.418;2023-04-24T01:08:54;4.68;;;3.15;;
36291;SDS011;22327;51.208;6.418;2023-04-24T01:11:20;4.95;;;3.35;;
36291;SDS011;22327;51.208;6.418;2023-04-24T01:13:47;4.55;;;3.17;;
36291;SDS011;22327;51.208;6.418;2023-04-24T01:16:13;6.35;;;3.70;;
36291;SDS011;22327;51.208;6.418;2023-04-24T01:18:42;5.25;;;3.53;;
36291;SDS011;22327;51.208;6.418;2023-04-24T01:21:08;4.40;;;3.90;;
36291;SDS011;22327;51.208;6.418;2023-04-24T01:23:36;5.82;;;4.20;;
36291;SDS011;22327;51.208;6.418;2023-04-24T01:26:02;10.05;;;4.65;;
36291;SDS011;22327;51.208;6.418;2023-04-24T01:28:27;6.18;;;4.45;;
36291;SDS011;22327;51.208;6.418;2023-04-24T01:30:53;10.80;;;5.80;;
36291;SDS011;22327;51.208;6.418;2023-04-24T01:33:20;7.82;;;4.60;;
36291;SDS011;22327;51.208;6.418;2023-04-24T01:35:46;9.93;;;5.00;;
36291;SDS011;22327;51.208;6.418;2023-04-24T01:38:13;5.53;;;4.47;;
36291;SDS011;22327;51.208;6.418;2023-04-24T01:40:38;7.43;;;4.57;;
36291;SDS011;22327;51.208;6.418;2023-04-24T01:43:04;6.90;;;4.95;;
36291;SDS011;22327;51.208;6.418;2023-04-24T01:45:30;6.93;;;4.82;;
36291;SDS011;22327;51.208;6.418;2023-04-24T01:47:55;7.13;;;5.30;;
36291;SDS011;22327;51.208;6.418;2023-04-24T01:50:21;7.40;;;5.28;;
36291;SDS011;22327;51.208;6.418;2023-04-24T01:52:47;7.05;;;5.78;;
36291;SDS011;22327;51.208;6.418;2023-04-24T01:55:12;8.55;;;5.70;;
36291;SDS011;22327;51.208;6.418;2023-04-24T01:57:38;8.93;;;6.10;;
36291;SDS011;22327;51.208;6.418;2023-04-24T02:00:04;8.98;;;6.65;;
36291;SDS011;22327;51.208;6.418;2023-04-24T02:02:31;7.97;;;6.07;;
36291;SDS011;22327;51.208;6.418;2023-04-24T02:04:57;10.10;;;6.22;;
36291;SDS011;22327;51.208;6.418;2023-04-24T02:07:23;11.52;;;6.05;;
36291;SDS011;22327;51.208;6.418;2023-04-24T02:09:48;11.18;;;7.35;;
36291;SDS011;22327;51.208;6.418;2023-04-24T02:12:14;11.43;;;6.72;;
36291;SDS011;22327;51.208;6.418;2023-04-24T02:14:42;8.75;;;6.22;;
36291;SDS011;22327;51.208;6.418;2023-04-24T02:17:08;13.85;;;7.95;;
36291;SDS011;22327;51.208;6.418;2023-04-24T02:19:33;13.73;;;7.30;;
36291;SDS011;22327;51.208;6.418;2023-04-24T02:21:59;14.55;;;7.55;;
36291;SDS011;22327;51.208;6.418;2023-04-24T02:24:25;12.05;;;8.13;;
36291;SDS011;22327;51.208;6.418;2023-04-24T02:26:50;15.70;;;8.43;;
36291;SDS011;22327;51.208;6.418;2023-04-24T02:29:16;10.95;;;7.40;;
36291;SDS011;22327;51.208;6.418;2023-04-24T02:31:41;10.73;;;7.47;;
36291;SDS011;22327;51.208;6.418;2023-04-24T02:34:07;13.65;;;7.43;;
36291;SDS011;22327;51.208;6.418;2023-04-24T02:36:32;12.15;;;8.20;;
36291;SDS011;22327;51.208;6.418;2023-04-24T02:38:58;12.35;;;8.00;;
36291;SDS011;22327;51.208;6.418;2023-04-24T02:41:23;13.45;;;7.63;;
36291;SDS011;22327;51.208;6.418;2023-04-24T02:43:49;12.15;;;7.18;;
36291;SDS011;22327;51.208;6.418;2023-04-24T02:46:15;11.32;;;7.18;;
36291;SDS011;22327;51.208;6.418;2023-04-24T02:48:40;11.48;;;7.70;;
36291;SDS011;22327;51.208;6.418;2023-04-24T02:51:06;11.65;;;6.82;;
36291;SDS011;22327;51.208;6.418;2023-04-24T02:53:31;13.23;;;7.30;;
36291;SDS011;22327;51.208;6.418;2023-04-24T02:55:57;14.40;;;7.60;;
36291;SDS011;22327;51.208;6.418;2023-04-24T02:58:23;11.00;;;7.10;;
36291;SDS011;22327;51.208;6.418;2023-04-24T03:00:52;11.10;;;7.40;;
36291;SDS011;22327;51.208;6.418;2023-04-24T03:03:19;12.48;;;7.53;;
36291;SDS011;22327;51.208;6.418;2023-04-24T03:05:45;9.02;;;7.07;;
36291;SDS011;22327;51.208;6.418;2023-04-24T03:08:10;11.82;;;7.22;;
36291;SDS011;22327;51.208;6.418;2023-04-24T03:10:36;9.90;;;6.82;;
36291;SDS011;22327;51.208;6.418;2023-04-24T03:13:01;11.48;;;7.32;;
36291;SDS011;22327;51.208;6.418;2023-04-24T03:15:27;14.00;;;8.15;;
36291;SDS011;22327;51.208;6.418;2023-04-24T03:17:52;14.27;;;7.47;;
36291;SDS011;22327;51.208;6.418;2023-04-24T03:20:18;14.25;;;9.40;;
36291;SDS011;22327;51.208;6.418;2023-04-24T03:22:43;10.13;;;7.25;;
36291;SDS011;22327;51.208;6.418;2023-04-24T03:25:09;12.32;;;7.65;;
36291;SDS011;22327;51.208;6.418;2023-04-24T03:27:35;12.68;;;7.75;;
36291;SDS011;22327;51.208;6.418;2023-04-24T03:30:00;10.45;;;6.95;;
36291;SDS011;22327;51.208;6.418;2023-04-24T03:32:27;11.07;;;8.07;;
36291;SDS011;22327;51.208;6.418;2023-04-24T03:34:52;9.23;;;6.50;;
36291;SDS011;22327;51.208;6.418;2023-04-24T03:37:18;10.93;;;7.15;;
36291;SDS011;22327;51.208;6.418;2023-04-24T03:39:43;10.98;;;7.82;;
36291;SDS011;22327;51.208;6.418;2023-04-24T03:42:09;13.20;;;7.40;;
36291;SDS011;22327;51.208;6.418;2023-04-24T03:44:35;18.13;;;8.40;;
36291;SDS011;22327;51.208;6.418;2023-04-24T03:47:01;10.15;;;6.80;;
36291;SDS011;22327;51.208;6.418;2023-04-24T03:49:27;10.82;;;7.22;;
36291;SDS011;22327;51.208;6.418;2023-04-24T03:51:52;10.52;;;6.70;;
36291;SDS011;22327;51.208;6.418;2023-04-24T03:54:18;10.48;;;6.35;;
36291;SDS011;22327;51.208;6.418;2023-04-24T03:56:44;11.18;;;6.68;;
36291;SDS011;22327;51.208;6.418;2023-04-24T03:59:09;10.13;;;6.95;;
36291;SDS011;22327;51.208;6.418;2023-04-24T04:01:35;9.20;;;6.65;;
36291;SDS011;22327;51.208;6.418;2023-04-24T04:04:02;10.75;;;6.60;;
36291;SDS011;22327;51.208;6.418;2023-04-24T04:06:28;13.43;;;7.32;;
36291;SDS011;22327;51.208;6.418;2023-04-24T04:08:55;9.20;;;6.32;;
36291;SDS011;22327;51.208;6.418;2023-04-24T04:11:21;10.55;;;6.20;;
36291;SDS011;22327;51.208;6.418;2023-04-24T04:13:47;10.32;;;6.07;;
36291;SDS011;22327;51.208;6.418;2023-04-24T04:16:12;9.45;;;7.00;;
36291;SDS011;22327;51.208;6.418;2023-04-24T04:18:38;9.02;;;6.57;;
36291;SDS011;22327;51.208;6.418;2023-04-24T04:21:04;12.30;;;6.82;;
36291;SDS011;22327;51.208;6.418;2023-04-24T04:23:30;8.02;;;6.13;;
36291;SDS011;22327;51.208;6.418;2023-04-24T04:25:56;9.50;;;6.75;;
36291;SDS011;22327;51.208;6.418;2023-04-24T04:28:22;8.25;;;5.65;;
36291;SDS011;22327;51.208;6.418;2023-04-24T04:30:49;12.18;;;6.40;;
36291;SDS011;22327;51.208;6.418;2023-04-24T04:33:18;10.00;;;6.90;;
36291;SDS011;22327;51.208;6.418;2023-04-24T04:35:45;10.02;;;7.10;;
36291;SDS011;22327;51.208;6.418;2023-04-24T04:38:13;10.60;;;8.23;;
36291;SDS011;22327;51.208;6.418;2023-04-24T04:40:40;9.18;;;7.38;;
36291;SDS011;22327;51.208;6.418;2023-04-24T04:43:05;9.55;;;7.30;;
36291;SDS011;22327;51.208;6.418;2023-04-24T04:45:31;9.70;;;7.30;;
36291;SDS011;22327;51.208;6.418;2023-04-24T04:47:58;11.63;;;7.72;;
36291;SDS011;22327;51.208;6.418;2023-04-24T04:50:25;12.18;;;8.57;;
36291;SDS011;22327;51.208;6.418;2023-04-24T04:52:51;11.65;;;7.47;;
36291;SDS011;22327;51.208;6.418;2023-04-24T04:55:17;11.20;;;6.93;;
36291;SDS011;22327;51.208;6.418;2023-04-24T04:57:44;11.20;;;8.27;;
36291;SDS011;22327;51.208;6.418;2023-04-24T05:00:11;8.68;;;7.05;;
36291;SDS011;22327;51.208;6.418;2023-04-24T05:02:37;7.70;;;6.80;;
36291;SDS011;22327;51.208;6.418;2023-04-24T05:05:04;9.40;;;7.10;;
36291;SDS011;22327;51.208;6.418;2023-04-24T05:07:30;11.00;;;7.15;;
36291;SDS011;22327;51.208;6.418;2023-04-24T05:09:56;9.60;;;8.23;;
36291;SDS011;22327;51.208;6.418;2023-04-24T05:12:21;9.73;;;6.68;;
36291;SDS011;22327;51.208;6.418;2023-04-24T05:14:47;10.48;;;7.03;;
36291;SDS011;22327;51.208;6.418;2023-04-24T05:17:12;10.45;;;6.78;;
36291;SDS011;22327;51.208;6.418;2023-04-24T05:19:38;9.23;;;6.88;;
36291;SDS011;22327;51.208;6.418;2023-04-24T05:22:04;8.10;;;6.38;;
36291;SDS011;22327;51.208;6.418;2023-04-24T05:24:31;7.88;;;6.43;;
36291;SDS011;22327;51.208;6.418;2023-04-24T05:26:58;8.25;;;6.30;;
36291;SDS011;22327;51.208;6.418;2023-04-24T05:29:23;7.60;;;6.13;;
36291;SDS011;22327;51.208;6.418;2023-04-24T05:31:51;8.13;;;6.20;;
36291;SDS011;22327;51.208;6.418;2023-04-24T05:34:16;9.70;;;6.00;;
36291;SDS011;22327;51.208;6.418;2023-04-24T05:36:42;7.68;;;6.28;;
36291;SDS011;22327;51.208;6.418;2023-04-24T05:39:07;8.68;;;6.05;;
36291;SDS011;22327;51.208;6.418;2023-04-24T05:41:33;7.68;;;5.80;;
36291;SDS011;22327;51.208;6.418;2023-04-24T05:43:59;9.35;;;5.50;;
36291;SDS011;22327;51.208;6.418;2023-04-24T05:46:24;6.20;;;5.38;;
36291;SDS011;22327;51.208;6.418;2023-04-24T05:48:50;7.80;;;5.60;;
36291;SDS011;22327;51.208;6.418;2023-04-24T05:51:15;7.60;;;5.03;;
36291;SDS011;22327;51.208;6.418;2023-04-24T05:53:41;6.97;;;5.75;;
36291;SDS011;22327;51.208;6.418;2023-04-24T05:56:06;6.38;;;5.38;;
36291;SDS011;22327;51.208;6.418;2023-04-24T05:58:32;6.88;;;5.00;;
36291;SDS011;22327;51.208;6.418;2023-04-24T06:00:58;5.82;;;4.78;;
36291;SDS011;22327;51.208;6.418;2023-04-24T06:03:25;7.03;;;4.78;;
36291;SDS011;22327;51.208;6.418;2023-04-24T06:05:52;7.40;;;5.43;;
36291;SDS011;22327;51.208;6.418;2023-04-24T06:08:18;8.23;;;5.05;;
36291;SDS011;22327;51.208;6.418;2023-04-24T06:10:44;8.15;;;4.85;;
36291;SDS011;22327;51.208;6.418;2023-04-24T06:13:13;6.07;;;4.63;;
36291;SDS011;22327;51.208;6.418;2023-04-24T06:15:38;5.88;;;4.60;;
36291;SDS011;22327;51.208;6.418;2023-04-24T06:18:05;6.57;;;4.80;;
36291;SDS011;22327;51.208;6.418;2023-04-24T06:20:31;5.45;;;4.47;;
36291;SDS011;22327;51.208;6.418;2023-04-24T06:23:02;6.75;;;5.07;;
36291;SDS011;22327;51.208;6.418;2023-04-24T06:25:28;9.40;;;5.18;;
36291;SDS011;22327;51.208;6.418;2023-04-24T06:27:54;5.50;;;4.60;;
36291;SDS011;22327;51.208;6.418;2023-04-24T06:30:20;7.30;;;4.75;;
36291;SDS011;22327;51.208;6.418;2023-04-24T06:32:46;8.05;;;5.18;;
36291;SDS011;22327;51.208;6.418;2023-04-24T06:35:11;5.40;;;4.10;;
36291;SDS011;22327;51.208;6.418;2023-04-24T06:37:38;6.75;;;4.75;;
36291;SDS011;22327;51.208;6.418;2023-04-24T06:40:05;4.15;;;3.40;;
36291;SDS011;22327;51.208;6.418;2023-04-24T06:42:31;6.55;;;3.20;;
36291;SDS011;22327;51.208;6.418;2023-04-24T06:44:57;4.38;;;3.25;;
36291;SDS011;22327;51.208;6.418;2023-04-24T06:47:22;3.47;;;2.70;;
36291;SDS011;22327;51.208;6.418;2023-04-24T06:49:48;3.55;;;2.75;;
36291;SDS011;22327;51.208;6.418;2023-04-24T06:52:15;3.35;;;3.00;;
36291;SDS011;22327;51.208;6.418;2023-04-24T06:54:41;4.38;;;2.78;;
36291;SDS011;22327;51.208;6.418;2023-04-24T06:57:07;3.50;;;2.67;;
36291;SDS011;22327;51.208;6.418;2023-04-24T06:59:33;3.83;;;2.15;;
36291;SDS011;22327;51.208;6.418;2023-04-24T07:01:59;2.70;;;1.60;;
36291;SDS011;22327;51.208;6.418;2023-04-24T07:04:25;0.82;;;0.57;;
36291;SDS011;22327;51.208;6.418;2023-04-24T07:06:51;1.10;;;0.75;;
36291;SDS011;22327;51.208;6.418;2023-04-24T07:09:19;2.47;;;1.10;;
36291;SDS011;22327;51.208;6.418;2023-04-24T07:11:45;0.90;;;0.80;;
36291;SDS011;22327;51.208;6.418;2023-04-24T07:14:11;1.98;;;0.85;;
36291;SDS011;22327;51.208;6.418;2023-04-24T07:16:37;0.55;;;0.55;;
36291;SDS011;22327;51.208;6.418;2023-04-24T07:19:02;0.70;;;0.50;;
36291;SDS011;22327;51.208;6.418;2023-04-24T07:21:28;1.17;;;0.55;;
36291;SDS011;22327;51.208;6.418;2023-04-24T07:23:53;1.50;;;0.55;;
36291;SDS011;22327;51.208;6.418;2023-04-24T07:26:19;2.15;;;0.90;;
36291;SDS011;22327;51.208;6.418;2023-04-24T07:28:46;0.75;;;0.75;;
36291;SDS011;22327;51.208;6.418;2023-04-24T07:31:11;0.80;;;0.70;;
36291;SDS011;22327;51.208;6.418;2023-04-24T07:33:37;1.08;;;0.60;;
36291;SDS011;22327;51.208;6.418;2023-04-24T07:36:03;1.27;;;0.63;;
36291;SDS011;22327;51.208;6.418;2023-04-24T07:38:29;1.40;;;0.73;;
36291;SDS011;22327;51.208;6.418;2023-04-24T07:40:55;1.20;;;0.98;;
36291;SDS011;22327;51.208;6.418;2023-04-24T07:43:20;1.08;;;0.77;;
36291;SDS011;22327;51.208;6.418;2023-04-24T07:45:47;1.77;;;0.90;;
36291;SDS011;22327;51.208;6.418;2023-04-24T07:48:12;1.38;;;1.08;;
36291;SDS011;22327;51.208;6.418;2023-04-24T07:50:41;1.15;;;0.90;;
36291;SDS011;22327;51.208;6.418;2023-04-24T07:53:07;3.05;;;1.20;;
36291;SDS011;22327;51.208;6.418;2023-04-24T07:55:32;2.30;;;1.05;;
36291;SDS011;22327;51.208;6.418;2023-04-24T07:57:58;2.53;;;1.73;;
36291;SDS011;22327;51.208;6.418;2023-04-24T08:00:23;3.22;;;1.90;;
36291;SDS011;22327;51.208;6.418;2023-04-24T08:02:49;2.50;;;2.10;;
36291;SDS011;22327;51.208;6.418;2023-04-24T08:05:14;3.95;;;2.78;;
36291;SDS011;22327;51.208;6.418;2023-04-24T08:07:40;5.43;;;3.55;;
36291;SDS011;22327;51.208;6.418;2023-04-24T08:10:07;4.05;;;2.97;;
36291;SDS011;22327;51.208;6.418;2023-04-24T08:12:35;4.30;;;2.92;;
36291;SDS011;22327;51.208;6.418;2023-04-24T08:15:01;6.25;;;3.50;;
36291;SDS011;22327;51.208;6.418;2023-04-24T08:17:26;5.10;;;2.72;;
36291;SDS011;22327;51.208;6.418;2023-04-24T08:19:52;5.63;;;3.85;;
36291;SDS011;22327;51.208;6.418;2023-04-24T08:22:23;5.60;;;3.70;;
36291;SDS011;22327;51.208;6.418;2023-04-24T08:24:49;4.45;;;2.72;;
36291;SDS011;22327;51.208;6.418;2023-04-24T08:27:15;5.03;;;2.80;;
36291;SDS011;22327;51.208;6.418;2023-04-24T08:29:40;3.97;;;2.85;;
36291;SDS011;22327;51.208;6.418;2023-04-24T08:32:06;5.65;;;3.55;;
36291;SDS011;22327;51.208;6.418;2023-04-24T08:34:31;5.53;;;3.00;;
36291;SDS011;22327;51.208;6.418;2023-04-24T08:36:57;4.28;;;2.85;;
36291;SDS011;22327;51.208;6.418;2023-04-24T08:39:22;4.32;;;2.95;;
36291;SDS011;22327;51.208;6.418;2023-04-24T08:41:48;6.38;;;3.17;;
36291;SDS011;22327;51.208;6.418;2023-04-24T08:44:15;5.90;;;3.50;;
36291;SDS011;22327;51.208;6.418;2023-04-24T08:46:42;4.72;;;3.60;;
36291;SDS011;22327;51.208;6.418;2023-04-24T08:49:10;6.00;;;4.28;;
36291;SDS011;22327;51.208;6.418;2023-04-24T08:51:37;7.68;;;4.60;;
36291;SDS011;22327;51.208;6.418;2023-04-24T08:54:04;6.57;;;4.95;;
36291;SDS011;22327;51.208;6.418;2023-04-24T08:56:29;12.23;;;5.90;;
36291;SDS011;22327;51.208;6.418;2023-04-24T08:58:59;12.13;;;6.45;;
36291;SDS011;22327;51.208;6.418;2023-04-24T09:01:26;10.82;;;6.32;;
36291;SDS011;22327;51.208;6.418;2023-04-24T09:03:53;9.35;;;5.30;;
36291;SDS011;22327;51.208;6.418;2023-04-24T09:06:20;13.35;;;5.90;;
36291;SDS011;22327;51.208;6.418;2023-04-24T09:08:47;12.95;;;5.53;;
36291;SDS011;22327;51.208;6.418;2023-04-24T09:11:18;14.75;;;6.07;;
36291;SDS011;22327;51.208;6.418;2023-04-24T09:13:44;10.55;;;5.75;;
36291;SDS011;22327;51.208;6.418;2023-04-24T09:16:11;16.27;;;6.72;;
36291;SDS011;22327;51.208;6.418;2023-04-24T09:18:36;15.65;;;6.55;;
36291;SDS011;22327;51.208;6.418;2023-04-24T09:23:29;14.18;;;6.05;;
36291;SDS011;22327;51.208;6.418;2023-04-24T09:25:56;10.82;;;6.70;;
36291;SDS011;22327;51.208;6.418;2023-04-24T09:28:25;13.38;;;6.85;;
36291;SDS011;22327;51.208;6.418;2023-04-24T09:31:04;14.05;;;7.10;;
36291;SDS011;22327;51.208;6.418;2023-04-24T09:33:30;13.30;;;7.25;;
36291;SDS011;22327;51.208;6.418;2023-04-24T09:35:55;14.95;;;7.35;;
36291;SDS011;22327;51.208;6.418;2023-04-24T09:38:34;12.20;;;6.35;;
36291;SDS011;22327;51.208;6.418;2023-04-24T09:41:05;12.52;;;6.32;;
36291;SDS011;22327;51.208;6.418;2023-04-24T09:43:32;11.77;;;6.40;;
36291;SDS011;22327;51.208;6.418;2023-04-24T09:45:58;12.70;;;6.68;;
36291;SDS011;22327;51.208;6.418;2023-04-24T09:48:46;9.45;;;5.93;;
36291;SDS011;22327;51.208;6.418;2023-04-24T09:51:12;9.80;;;5.63;;
36291;SDS011;22327;51.208;6.418;2023-04-24T09:53:37;17.38;;;7.68;;
36291;SDS011;22327;51.208;6.418;2023-04-24T09:56:06;14.43;;;6.15;;
36291;SDS011;22327;51.208;6.418;2023-04-24T09:58:34;12.30;;;5.30;;
36291;SDS011;22327;51.208;6.418;2023-04-24T10:01:00;11.50;;;6.20;;
36291;SDS011;22327;51.208;6.418;2023-04-24T10:03:27;11.63;;;5.15;;
36291;SDS011;22327;51.208;6.418;2023-04-24T10:05:58;12.23;;;5.38;;
36291;SDS011;22327;51.208;6.418;2023-04-24T10:08:24;13.65;;;5.25;;
36291;SDS011;22327;51.208;6.418;2023-04-24T10:10:51;10.18;;;5.13;;
36291;SDS011;22327;51.208;6.418;2023-04-24T10:13:17;9.55;;;4.93;;
36291;SDS011;22327;51.208;6.418;2023-04-24T10:15:43;14.43;;;5.05;;
36291;SDS011;22327;51.208;6.418;2023-04-24T10:18:10;9.90;;;4.00;;
36291;SDS011;22327;51.208;6.418;2023-04-24T10:20:37;9.50;;;4.43;;
36291;SDS011;22327;51.208;6.418;2023-04-24T10:23:04;8.50;;;3.95;;
36291;SDS011;22327;51.208;6.418;2023-04-24T10:25:31;10.35;;;4.03;;
36291;SDS011;22327;51.208;6.418;2023-04-24T10:27:58;9.35;;;3.78;;
36291;SDS011;22327;51.208;6.418;2023-04-24T10:30:25;7.32;;;3.60;;
36291;SDS011;22327;51.208;6.418;2023-04-24T10:32:52;9.38;;;3.65;;
36291;SDS011;22327;51.208;6.418;2023-04-24T10:35:18;8.15;;;2.95;;
36291;SDS011;22327;51.208;6.418;2023-04-24T10:37:50;8.50;;;2.65;;
36291;SDS011;22327;51.208;6.418;2023-04-24T10:40:25;8.45;;;2.53;;
36291;SDS011;22327;51.208;6.418;2023-04-24T10:42:54;9.05;;;2.85;;
36291;SDS011;22327;51.208;6.418;2023-04-24T10:45:22;9.10;;;3.35;;
36291;SDS011;22327;51.208;6.418;2023-04-24T10:47:58;5.97;;;2.80;;
36291;SDS011;22327;51.208;6.418;2023-04-24T10:50:25;8.63;;;3.45;;
36291;SDS011;22327;51.208;6.418;2023-04-24T10:52:52;10.88;;;2.70;;
36291;SDS011;22327;51.208;6.418;2023-04-24T10:55:57;6.55;;;2.55;;
36291;SDS011;22327;51.208;6.418;2023-04-24T10:58:15;5.30;;;2.47;;
36291;SDS011;22327;51.208;6.418;2023-04-24T11:00:54;8.07;;;2.83;;
36291;SDS011;22327;51.208;6.418;2023-04-24T11:03:25;5.70;;;2.42;;
36291;SDS011;22327;51.208;6.418;2023-04-24T11:11:01;5.63;;;2.28;;
36291;SDS011;22327;51.208;6.418;2023-04-24T11:19:02;7.07;;;2.60;;
36291;SDS011;22327;51.208;6.418;2023-04-24T11:21:32;11.93;;;2.53;;
36291;SDS011;22327;51.208;6.418;2023-04-24T11:24:24;5.40;;;2.20;;
36291;SDS011;22327;51.208;6.418;2023-04-24T11:26:56;6.03;;;2.60;;
36291;SDS011;22327;51.208;6.418;2023-04-24T11:29:38;9.07;;;2.63;;
36291;SDS011;22327;51.208;6.418;2023-04-24T11:34:50;6.43;;;1.90;;
36291;SDS011;22327;51.208;6.418;2023-04-24T11:37:17;7.70;;;2.47;;
36291;SDS011;22327;51.208;6.418;2023-04-24T11:39:43;8.07;;;2.47;;
36291;SDS011;22327;51.208;6.418;2023-04-24T11:42:08;5.57;;;1.85;;
36291;SDS011;22327;51.208;6.418;2023-04-24T11:44:34;5.13;;;1.88;;
36291;SDS011;22327;51.208;6.418;2023-04-24T11:47:02;4.88;;;2.35;;
36291;SDS011;22327;51.208;6.418;2023-04-24T11:49:29;7.30;;;3.17;;
36291;SDS011;22327;51.208;6.418;2023-04-24T11:51:55;9.88;;;2.67;;
36291;SDS011;22327;51.208;6.418;2023-04-24T11:54:21;5.82;;;2.40;;
36291;SDS011;22327;51.208;6.418;2023-04-24T11:56:47;5.05;;;1.40;;
36291;SDS011;22327;51.208;6.418;2023-04-24T11:59:14;3.30;;;1.40;;
36291;SDS011;22327;51.208;6.418;2023-04-24T12:01:45;4.60;;;1.30;;
36291;SDS011;22327;51.208;6.418;2023-04-24T12:04:11;3.53;;;1.27;;
36291;SDS011;22327;51.208;6.418;2023-04-24T12:06:37;5.10;;;1.58;;
36291;SDS011;22327;51.208;6.418;2023-04-24T12:09:03;3.38;;;1.00;;
36291;SDS011;22327;51.208;6.418;2023-04-24T12:11:29;3.03;;;0.90;;
36291;SDS011;22327;51.208;6.418;2023-04-24T12:13:55;3.47;;;0.95;;
36291;SDS011;22327;51.208;6.418;2023-04-24T12:16:20;3.15;;;1.13;;
36291;SDS011;22327;51.208;6.418;2023-04-24T12:18:46;3.13;;;1.00;;
36291;SDS011;22327;51.208;6.418;2023-04-24T12:21:15;2.15;;;0.70;;
36291;SDS011;22327;51.208;6.418;2023-04-24T12:23:45;2.60;;;1.00;;
36291;SDS011;22327;51.208;6.418;2023-04-24T12:26:11;1.77;;;0.60;;
36291;SDS011;22327;51.208;6.418;2023-04-24T12:28:38;5.25;;;1.10;;
36291;SDS011;22327;51.208;6.418;2023-04-24T12:31:04;5.45;;;1.08;;
36291;SDS011;22327;51.208;6.418;2023-04-24T12:33:33;2.78;;;1.20;;
36291;SDS011;22327;51.208;6.418;2023-04-24T12:36:00;4.20;;;0.90;;
36291;SDS011;22327;51.208;6.418;2023-04-24T12:38:26;2.72;;;1.15;;
36291;SDS011;22327;51.208;6.418;2023-04-24T12:41:04;3.13;;;0.80;;
36291;SDS011;22327;51.208;6.418;2023-04-24T12:43:33;2.83;;;1.10;;
36291;SDS011;22327;51.208;6.418;2023-04-24T12:46:00;2.58;;;0.93;;
36291;SDS011;22327;51.208;6.418;2023-04-24T12:48:26;2.88;;;1.27;;
36291;SDS011;22327;51.208;6.418;2023-04-24T12:50:52;2.53;;;1.23;;
36291;SDS011;22327;51.208;6.418;2023-04-24T12:53:18;5.65;;;1.92;;
36291;SDS011;22327;51.208;6.418;2023-04-24T12:55:44;3.08;;;1.02;;
36291;SDS011;22327;51.208;6.418;2023-04-24T12:58:10;2.45;;;0.90;;
36291;SDS011;22327;51.208;6.418;2023-04-24T13:00:36;3.08;;;0.98;;
36291;SDS011;22327;51.208;6.418;2023-04-24T13:03:03;3.83;;;1.25;;
36291;SDS011;22327;51.208;6.418;2023-04-24T13:05:29;3.08;;;1.02;;
36291;SDS011;22327;51.208;6.418;2023-04-24T13:07:54;4.80;;;1.23;;
36291;SDS011;22327;51.208;6.418;2023-04-24T13:10:20;2.17;;;1.25;;
36291;SDS011;22327;51.208;6.418;2023-04-24T13:12:45;4.22;;;2.53;;
36291;SDS011;22327;51.208;6.418;2023-04-24T13:15:11;1.75;;;1.17;;
36291;SDS011;22327;51.208;6.418;2023-04-24T13:17:37;4.90;;;1.23;;
36291;SDS011;22327;51.208;6.418;2023-04-24T13:20:03;2.28;;;1.05;;
36291;SDS011;22327;51.208;6.418;2023-04-24T13:22:29;1.83;;;0.85;;
36291;SDS011;22327;51.208;6.418;2023-04-24T13:24:55;1.75;;;0.95;;
36291;SDS011;22327;51.208;6.418;2023-04-24T13:27:21;2.25;;;1.00;;
36291;SDS011;22327;51.208;6.418;2023-04-24T13:29:46;5.32;;;1.50;;
36291;SDS011;22327;51.208;6.418;2023-04-24T13:32:12;1.95;;;1.38;;
36291;SDS011;22327;51.208;6.418;2023-04-24T13:34:38;3.90;;;0.90;;
36291;SDS011;22327;51.208;6.418;2023-04-24T13:37:04;2.30;;;1.02;;
36291;SDS011;22327;51.208;6.418;2023-04-24T13:39:30;2.28;;;1.25;;
36291;SDS011;22327;51.208;6.418;2023-04-24T13:41:56;3.80;;;1.00;;
36291;SDS011;22327;51.208;6.418;2023-04-24T13:44:22;3.40;;;1.10;;
36291;SDS011;22327;51.208;6.418;2023-04-24T13:46:49;1.92;;;0.90;;
36291;SDS011;22327;51.208;6.418;2023-04-24T13:49:17;2.60;;;1.13;;
36291;SDS011;22327;51.208;6.418;2023-04-24T13:51:43;3.70;;;1.55;;
36291;SDS011;22327;51.208;6.418;2023-04-24T13:54:10;2.45;;;0.98;;
36291;SDS011;22327;51.208;6.418;2023-04-24T13:56:36;4.85;;;1.02;;
36291;SDS011;22327;51.208;6.418;2023-04-24T13:59:01;1.88;;;0.93;;
36291;SDS011;22327;51.208;6.418;2023-04-24T14:01:27;2.65;;;1.08;;
36291;SDS011;22327;51.208;6.418;2023-04-24T14:03:53;1.45;;;0.80;;
36291;SDS011;22327;51.208;6.418;2023-04-24T14:06:20;4.47;;;1.10;;
36291;SDS011;22327;51.208;6.418;2023-04-24T14:08:46;2.78;;;0.88;;
36291;SDS011;22327;51.208;6.418;2023-04-24T14:11:12;2.58;;;0.95;;
36291;SDS011;22327;51.208;6.418;2023-04-24T14:13:38;2.28;;;0.77;;
36291;SDS011;22327;51.208;6.418;2023-04-24T14:16:05;1.60;;;0.93;;
36291;SDS011;22327;51.208;6.418;2023-04-24T14:18:31;2.22;;;0.90;;
36291;SDS011;22327;51.208;6.418;2023-04-24T14:20:56;3.45;;;1.10;;
36291;SDS011;22327;51.208;6.418;2023-04-24T14:23:22;2.33;;;1.23;;
36291;SDS011;22327;51.208;6.418;2023-04-24T14:25:48;2.28;;;1.00;;
36291;SDS011;22327;51.208;6.418;2023-04-24T14:28:17;2.47;;;0.90;;
36291;SDS011;22327;51.208;6.418;2023-04-24T14:30:45;2.60;;;1.00;;
36291;SDS011;22327;51.208;6.418;2023-04-24T14:33:12;1.85;;;0.90;;
36291;SDS011;22327;51.208;6.418;2023-04-24T14:35:38;2.47;;;0.95;;
36291;SDS011;22327;51.208;6.418;2023-04-24T14:38:05;3.25;;;0.93;;
36291;SDS011;22327;51.208;6.418;2023-04-24T14:40:30;2.85;;;1.00;;
36291;SDS011;22327;51.208;6.418;2023-04-24T14:42:57;2.67;;;0.70;;
36291;SDS011;22327;51.208;6.418;2023-04-24T14:45:23;2.35;;;0.82;;
36291;SDS011;22327;51.208;6.418;2023-04-24T14:47:49;2.10;;;0.98;;
36291;SDS011;22327;51.208;6.418;2023-04-24T14:50:15;3.20;;;1.00;;
36291;SDS011;22327;51.208;6.418;2023-04-24T14:52:40;4.03;;;1.45;;
36291;SDS011;22327;51.208;6.418;2023-04-24T14:55:06;3.50;;;1.10;;